Time;durP1;ratioP1;P1;durP2;ratioP2;P2;SDS_P1;SDS_P2;PMS_P1;PMS_P2;Temp;Humidity;BMP_temperature;BMP_pressure;BME280_temperature;BME280_humidity;BME280_pressure;Samples;Min_cycle;Max_cycle;Signal;HPM_P1;HPM_P2
2024/01/16 00:01:35;;;;;;;10.70;7.50;;;;;;;-2.72;100.00;96774.56;4984052;28;20921;-76
2024/01/16 00:04:01;;;;;;;14.48;9.27;;;;;;;-2.76;100.00;96766.34;4985424;28;20409;-76
2024/01/16 00:06:27;;;;;;;16.85;9.32;;;;;;;-2.77;100.00;96758.75;4985589;28;20407;-75
2024/01/16 00:08:53;;;;;;;15.98;9.25;;;;;;;-2.86;100.00;96750.31;4983440;28;20410;-75
2024/01/16 00:11:19;;;;;;;14.23;8.60;;;;;;;-2.93;100.00;96757.19;4984026;28;20502;-75
2024/01/16 00:13:45;;;;;;;15.93;9.05;;;;;;;-2.96;100.00;96749.00;4985063;28;20404;-75
2024/01/16 00:16:13;;;;;;;17.45;9.18;;;;;;;-3.04;100.00;96754.28;4985377;28;20825;-75
2024/01/16 00:18:39;;;;;;;21.55;9.52;;;;;;;-3.08;100.00;96748.66;4984434;28;20393;-75
2024/01/16 00:21:05;;;;;;;15.13;9.40;;;;;;;-3.09;100.00;96754.03;4983043;28;20402;-76
2024/01/16 00:23:32;;;;;;;13.00;8.30;;;;;;;-3.05;100.00;96752.66;4985086;28;20434;-75
2024/01/16 00:25:58;;;;;;;14.43;9.25;;;;;;;-3.01;100.00;96759.09;4983022;28;20829;-75
2024/01/16 00:28:24;;;;;;;13.50;8.40;;;;;;;-3.00;100.00;96756.31;4983357;28;20398;-75
2024/01/16 00:30:50;;;;;;;14.52;9.02;;;;;;;-3.02;100.00;96753.13;4984862;28;20429;-75
2024/01/16 00:33:18;;;;;;;15.13;8.95;;;;;;;-2.99;100.00;96757.13;4983659;28;20491;-75
2024/01/16 00:35:44;;;;;;;18.42;9.15;;;;;;;-3.06;100.00;96759.63;4983152;28;20434;-75
2024/01/16 00:38:10;;;;;;;12.90;9.25;;;;;;;-2.97;100.00;96758.56;4984579;28;20447;-76
2024/01/16 00:40:36;;;;;;;12.85;8.60;;;;;;;-2.95;100.00;96751.41;4983594;28;20730;-75
2024/01/16 00:43:03;;;;;;;19.27;9.20;;;;;;;-2.92;100.00;96758.00;4983366;28;20995;-75
2024/01/16 00:45:30;;;;;;;14.88;8.63;;;;;;;-2.90;100.00;96751.66;4984831;28;20398;-75
2024/01/16 00:47:56;;;;;;;14.77;8.70;;;;;;;-2.91;100.00;96742.28;4982149;28;20400;-75
2024/01/16 00:50:24;;;;;;;15.73;9.00;;;;;;;-2.92;100.00;96740.66;4983817;28;20416;-75
2024/01/16 00:52:50;;;;;;;15.93;8.30;;;;;;;-2.88;100.00;96749.69;4982233;28;20983;-76
2024/01/16 00:55:17;;;;;;;15.45;8.82;;;;;;;-2.91;100.00;96746.66;4983951;28;20759;-76
2024/01/16 00:57:43;;;;;;;14.60;9.05;;;;;;;-2.87;100.00;96750.50;4981964;28;20400;-76
2024/01/16 01:00:11;;;;;;;16.42;8.88;;;;;;;-2.88;100.00;96744.53;4984283;28;20414;-76
2024/01/16 01:02:37;;;;;;;13.30;8.52;;;;;;;-2.83;100.00;96752.53;4983626;28;20439;-75
2024/01/16 01:05:04;;;;;;;11.63;8.00;;;;;;;-2.81;100.00;96745.41;4982741;28;20399;-76
2024/01/16 01:07:31;;;;;;;13.27;8.25;;;;;;;-2.76;100.00;96752.59;4984057;28;20405;-76
2024/01/16 01:09:58;;;;;;;12.35;8.15;;;;;;;-2.76;100.00;96758.59;4981669;28;20422;-75
2024/01/16 01:12:24;;;;;;;12.88;8.57;;;;;;;-2.78;100.00;96757.16;4983821;28;20404;-75
2024/01/16 01:14:50;;;;;;;14.13;8.27;;;;;;;-2.74;100.00;96759.22;4982107;28;20396;-75
2024/01/16 01:17:16;;;;;;;12.75;8.27;;;;;;;-2.72;100.00;96758.22;4983574;28;20402;-75
2024/01/16 01:19:42;;;;;;;11.77;8.38;;;;;;;-2.73;100.00;96760.03;4983880;28;20415;-76
2024/01/16 01:22:08;;;;;;;14.90;8.68;;;;;;;-2.69;100.00;96763.03;4982017;28;20416;-77
2024/01/16 01:24:36;;;;;;;13.32;8.43;;;;;;;-2.68;100.00;96762.03;4983717;28;20409;-75
2024/01/16 01:27:02;;;;;;;14.40;8.15;;;;;;;-2.68;100.00;96765.44;4983422;28;20404;-77
2024/01/16 01:29:28;;;;;;;12.00;7.60;;;;;;;-2.66;100.00;96770.44;4981706;28;20915;-75
2024/01/16 01:31:54;;;;;;;15.88;8.25;;;;;;;-2.69;100.00;96760.44;4982793;28;20404;-75
2024/01/16 01:34:20;;;;;;;13.18;8.20;;;;;;;-2.70;100.00;96759.63;4982454;28;20409;-75
2024/01/16 01:36:47;;;;;;;16.83;8.60;;;;;;;-2.67;100.00;96767.06;4983334;28;20432;-76
2024/01/16 01:39:13;;;;;;;16.10;8.38;;;;;;;-2.66;100.00;96767.84;4982029;28;20408;-76
2024/01/16 01:41:41;;;;;;;12.90;8.05;;;;;;;-2.62;100.00;96776.84;4982810;28;20880;-77
2024/01/16 01:44:07;;;;;;;12.48;8.07;;;;;;;-2.64;100.00;96771.06;4983899;28;20398;-77
2024/01/16 01:46:34;;;;;;;13.02;7.88;;;;;;;-2.62;100.00;96779.44;4981812;28;20466;-76
2024/01/16 01:49:00;;;;;;;12.70;7.70;;;;;;;-2.63;100.00;96785.63;4982817;28;20486;-76
2024/01/16 01:51:27;;;;;;;12.20;7.80;;;;;;;-2.64;100.00;96789.22;4983513;28;20758;-76
2024/01/16 01:53:54;;;;;;;12.93;8.05;;;;;;;-2.64;100.00;96781.44;4981497;28;20409;-75
2024/01/16 01:56:21;;;;;;;13.48;8.02;;;;;;;-2.65;100.00;96790.19;4982630;28;20408;-76
2024/01/16 01:58:53;;;;;;;12.82;7.75;;;;;;;-2.69;100.00;96792.31;4983299;28;20410;-76
2024/01/16 02:01:21;;;;;;;11.57;8.00;;;;;;;-2.77;100.00;96790.66;4982138;28;20412;-76
2024/01/16 02:03:49;;;;;;;12.65;8.05;;;;;;;-2.86;100.00;96790.97;4982115;28;20410;-77
2024/01/16 02:06:16;;;;;;;13.07;8.48;;;;;;;-2.97;100.00;96792.22;4980636;28;20498;-76
2024/01/16 02:08:42;;;;;;;14.52;8.38;;;;;;;-3.06;100.00;96782.94;4982554;28;20404;-76
2024/01/16 02:11:09;;;;;;;13.18;8.40;;;;;;;-3.10;100.00;96783.47;4980874;28;20459;-77
2024/01/16 02:13:35;;;;;;;14.27;8.63;;;;;;;-3.17;100.00;96791.16;4982505;28;20403;-76
2024/01/16 02:16:03;;;;;;;11.50;7.82;;;;;;;-3.22;100.00;96793.47;4982215;28;20458;-76
2024/01/16 02:18:29;;;;;;;11.68;7.30;;;;;;;-3.25;100.00;96796.44;4981089;28;20404;-76
2024/01/16 02:21:00;;;;;;;15.80;8.88;;;;;;;-3.31;100.00;96794.56;4982378;28;20402;-76
2024/01/16 02:23:29;;;;;;;12.40;8.20;;;;;;;-3.35;100.00;96793.28;4982724;28;20458;-76
2024/01/16 02:25:55;;;;;;;16.35;8.82;;;;;;;-3.38;100.00;96794.44;4982837;28;20863;-77
2024/01/16 02:28:21;;;;;;;15.40;8.77;;;;;;;-3.39;100.00;96800.63;4982088;28;20404;-76
2024/01/16 02:30:47;;;;;;;17.95;9.07;;;;;;;-3.39;100.00;96794.66;4980368;28;22198;-76
2024/01/16 02:33:13;;;;;;;16.10;8.55;;;;;;;-3.41;100.00;96794.00;4983079;28;20946;-76
2024/01/16 02:35:39;;;;;;;15.82;8.75;;;;;;;-3.38;100.00;96798.84;4982906;28;20398;-76
2024/01/16 02:38:06;;;;;;;15.20;8.80;;;;;;;-3.39;100.00;96795.44;4982536;28;20439;-76
2024/01/16 02:40:33;;;;;;;14.73;9.00;;;;;;;-3.40;100.00;96798.22;4980661;28;20451;-76
2024/01/16 02:42:59;;;;;;;16.23;8.95;;;;;;;-3.49;100.00;96792.31;4981712;28;20402;-76
2024/01/16 02:45:25;;;;;;;13.20;8.30;;;;;;;-3.50;100.00;96801.06;4982544;28;20558;-77
2024/01/16 02:47:51;;;;;;;14.60;9.70;;;;;;;-3.49;100.00;96804.44;4980328;28;20499;-76
2024/01/16 02:50:20;;;;;;;14.30;8.90;;;;;;;-3.55;100.00;96800.78;4981259;28;20517;-76
2024/01/16 02:52:46;;;;;;;16.30;8.45;;;;;;;-3.57;100.00;96797.56;4982433;28;20850;-76
2024/01/16 02:55:13;;;;;;;12.10;7.57;;;;;;;-3.58;100.00;96801.94;4980396;28;20440;-76
2024/01/16 02:57:40;;;;;;;13.10;8.10;;;;;;;-3.62;100.00;96810.25;4980502;28;20408;-76
2024/01/16 03:00:08;;;;;;;13.75;8.15;;;;;;;-3.64;100.00;96813.00;4980342;28;20517;-76
2024/01/16 03:02:34;;;;;;;14.60;8.98;;;;;;;-3.67;100.00;96809.94;4983420;28;20796;-76
2024/01/16 03:05:02;;;;;;;16.27;8.30;;;;;;;-3.70;100.00;96811.13;4981350;28;20465;-76
2024/01/16 03:07:29;;;;;;;13.40;8.00;;;;;;;-3.68;100.00;96806.56;4982196;28;20410;-76
2024/01/16 03:09:55;;;;;;;15.05;7.82;;;;;;;-3.71;100.00;96809.50;4980345;28;20576;-76
2024/01/16 03:12:21;;;;;;;13.75;7.78;;;;;;;-3.77;100.00;96809.41;4981025;28;20861;-76
2024/01/16 03:14:48;;;;;;;15.73;8.05;;;;;;;-3.80;100.00;96804.56;4982357;28;20406;-76
2024/01/16 03:17:15;;;;;;;11.77;7.43;;;;;;;-3.82;100.00;96806.53;4982256;28;20403;-76
2024/01/16 03:19:43;;;;;;;15.18;8.40;;;;;;;-3.86;100.00;96807.88;4981361;28;20454;-76
2024/01/16 03:22:10;;;;;;;14.35;8.05;;;;;;;-3.91;100.00;96805.81;4980368;28;20833;-76
2024/01/16 03:24:36;;;;;;;10.32;7.32;;;;;;;-3.98;100.00;96803.09;4981709;28;20440;-76
2024/01/16 03:27:04;;;;;;;11.13;7.38;;;;;;;-4.06;100.00;96805.75;4981079;28;20508;-75
2024/01/16 03:29:30;;;;;;;11.45;7.82;;;;;;;-4.12;100.00;96815.97;4980094;28;20452;-76
2024/01/16 03:31:57;;;;;;;13.23;8.32;;;;;;;-4.18;100.00;96822.66;4981783;28;20403;-75
2024/01/16 03:34:24;;;;;;;12.40;7.78;;;;;;;-4.21;100.00;96822.19;4981768;28;20459;-76
2024/01/16 03:36:50;;;;;;;17.02;8.63;;;;;;;-4.22;100.00;96823.97;4980377;28;20816;-76
2024/01/16 03:39:16;;;;;;;13.13;7.97;;;;;;;-4.24;100.00;96819.94;4981437;28;20822;-76
2024/01/16 03:41:42;;;;;;;11.77;7.68;;;;;;;-4.28;100.00;96819.47;4980911;28;20928;-76
2024/01/16 03:44:09;;;;;;;16.00;8.82;;;;;;;-4.28;100.00;96813.53;4980021;28;20471;-76
2024/01/16 03:46:35;;;;;;;14.13;7.80;;;;;;;-4.28;100.00;96814.31;4981906;28;20421;-76
2024/01/16 03:49:02;;;;;;;14.82;8.52;;;;;;;-4.24;100.00;96817.38;4981088;28;20404;-76
2024/01/16 03:51:29;;;;;;;12.70;7.72;;;;;;;-4.23;100.00;96812.03;4979739;28;20471;-76
2024/01/16 03:53:55;;;;;;;11.80;7.65;;;;;;;-4.24;100.00;96799.28;4981478;28;20399;-76
2024/01/16 03:56:22;;;;;;;13.40;7.72;;;;;;;-4.28;100.00;96798.03;4980977;28;20412;-76
2024/01/16 03:58:48;;;;;;;12.00;7.75;;;;;;;-4.33;100.00;96793.38;4979973;28;20411;-76
2024/01/16 04:01:15;;;;;;;13.68;7.72;;;;;;;-4.36;100.00;96793.72;4984598;28;20457;-76
2024/01/16 04:03:41;;;;;;;11.88;7.68;;;;;;;-4.39;100.00;96796.66;4984814;28;20408;-76
2024/01/16 04:06:16;;;;;;;13.93;7.73;;;;;;;-4.41;100.00;96790.84;4983599;28;20888;-76
2024/01/16 04:08:42;;;;;;;16.05;8.10;;;;;;;-4.43;100.00;96793.59;4985315;28;20415;-76
2024/01/16 04:11:12;;;;;;;12.15;7.57;;;;;;;-4.44;100.00;96797.16;4985834;28;20561;-75
2024/01/16 04:13:38;;;;;;;13.93;7.88;;;;;;;-4.48;100.00;96801.06;4985714;28;20402;-76
2024/01/16 04:16:05;;;;;;;12.10;7.30;;;;;;;-4.53;100.00;96800.78;4984963;28;20396;-76
2024/01/16 04:18:35;;;;;;;13.65;7.45;;;;;;;-4.54;100.00;96795.78;4983248;28;20418;-76
2024/01/16 04:21:01;;;;;;;17.40;8.55;;;;;;;-4.54;100.00;96799.16;4983901;28;20492;-76
2024/01/16 04:23:29;;;;;;;13.90;7.90;;;;;;;-4.52;100.00;96802.38;4985017;28;20404;-76
2024/01/16 04:25:55;;;;;;;14.40;8.25;;;;;;;-4.50;100.00;96797.84;4985308;28;20430;-75
2024/01/16 04:28:21;;;;;;;18.83;8.27;;;;;;;-4.49;100.00;96796.06;4984072;28;20400;-76
2024/01/16 04:30:47;;;;;;;11.95;7.10;;;;;;;-4.51;100.00;96792.88;4982961;28;20420;-76
2024/01/16 04:33:13;;;;;;;13.32;8.00;;;;;;;-4.52;100.00;96792.06;4984909;28;20413;-76
2024/01/16 04:35:40;;;;;;;14.13;7.97;;;;;;;-4.52;100.00;96792.06;4983367;28;20921;-76
2024/01/16 04:38:07;;;;;;;12.05;7.75;;;;;;;-4.49;100.00;96788.31;4983266;28;20410;-76
2024/01/16 04:40:35;;;;;;;11.05;6.85;;;;;;;-4.52;100.00;96781.72;4985417;28;20962;-76
2024/01/16 04:43:01;;;;;;;11.35;6.70;;;;;;;-4.56;100.00;96783.03;4984139;28;20443;-76
2024/01/16 04:45:27;;;;;;;11.88;7.07;;;;;;;-4.59;100.00;96780.81;4982830;28;20407;-76
2024/01/16 04:47:53;;;;;;;12.32;6.70;;;;;;;-4.62;100.00;96781.13;4984643;28;20399;-76
2024/01/16 04:50:19;;;;;;;11.03;6.83;;;;;;;-4.60;100.00;96786.94;4983016;28;20527;-76
2024/01/16 04:52:46;;;;;;;12.10;6.88;;;;;;;-4.60;100.00;96789.53;4984117;28;20416;-76
2024/01/16 04:55:12;;;;;;;12.88;6.72;;;;;;;-4.61;100.00;96785.31;4985305;28;20403;-76
2024/01/16 04:57:39;;;;;;;9.10;5.93;;;;;;;-4.64;100.00;96782.28;4984181;28;20414;-76
2024/01/16 05:00:07;;;;;;;8.65;5.90;;;;;;;-4.70;100.00;96782.00;4990966;28;20402;-75
2024/01/16 05:02:36;;;;;;;10.70;5.72;;;;;;;-4.73;100.00;96778.94;4984178;28;20787;-76
2024/01/16 05:05:02;;;;;;;11.48;6.78;;;;;;;-4.78;100.00;96776.88;4989319;28;20501;-75
2024/01/16 05:07:28;;;;;;;8.43;5.83;;;;;;;-4.82;100.00;96778.19;4986870;28;20409;-76
2024/01/16 05:09:55;;;;;;;9.55;6.38;;;;;;;-4.86;100.00;96783.84;4984251;28;20419;-76
2024/01/16 05:12:22;;;;;;;8.73;5.68;;;;;;;-4.87;100.00;96788.19;4982675;28;20467;-76
2024/01/16 05:14:50;;;;;;;8.25;5.60;;;;;;;-4.88;100.00;96784.00;4988735;28;20911;-76
2024/01/16 05:17:16;;;;;;;6.73;5.37;;;;;;;-4.92;100.00;96781.94;4988871;28;20875;-76
2024/01/16 05:19:42;;;;;;;6.67;5.10;;;;;;;-4.99;100.00;96781.81;4983189;28;20464;-75
2024/01/16 05:22:10;;;;;;;10.27;6.53;;;;;;;-5.06;100.00;96773.16;4991212;28;20407;-75
2024/01/16 05:24:37;;;;;;;8.90;5.72;;;;;;;-5.12;100.00;96779.78;4999117;28;20398;-75
2024/01/16 05:27:04;;;;;;;9.65;5.90;;;;;;;-5.14;100.00;96770.59;4988620;28;20442;-78
2024/01/16 05:29:31;;;;;;;13.13;7.43;;;;;;;-5.15;100.00;96769.78;4981331;28;20439;-76
2024/01/16 05:31:58;;;;;;;10.55;6.90;;;;;;;-5.11;100.00;96768.47;4983463;28;20407;-76
2024/01/16 05:34:25;;;;;;;7.90;5.90;;;;;;;-5.06;100.00;96762.84;4983554;28;20415;-75
2024/01/16 05:36:51;;;;;;;8.80;5.40;;;;;;;-5.05;100.00;96761.84;4981594;28;20422;-75
2024/01/16 05:39:18;;;;;;;8.07;5.70;;;;;;;-5.03;100.00;96761.66;4987294;28;20453;-76
2024/01/16 05:41:44;;;;;;;8.40;5.63;;;;;;;-5.03;100.00;96753.94;4983659;28;20921;-76
2024/01/16 05:44:10;;;;;;;9.38;6.32;;;;;;;-5.04;100.00;96758.31;4984540;28;20442;-76
2024/01/16 05:46:36;;;;;;;11.57;6.63;;;;;;;-5.04;100.00;96753.16;4981712;28;20443;-76
2024/01/16 05:49:04;;;;;;;12.68;7.00;;;;;;;-5.03;100.00;96747.00;4982674;28;20423;-76
2024/01/16 05:51:30;;;;;;;14.90;6.97;;;;;;;-4.98;100.00;96747.31;4983066;28;20510;-76
2024/01/16 05:53:56;;;;;;;13.77;7.40;;;;;;;-4.91;100.00;96747.44;4983286;28;20748;-76
2024/01/16 05:56:22;;;;;;;10.48;6.63;;;;;;;-4.86;100.00;96739.97;4982858;28;20414;-76
2024/01/16 05:58:49;;;;;;;11.63;6.68;;;;;;;-4.81;100.00;96741.06;4981378;28;20406;-75
2024/01/16 06:01:15;;;;;;;9.55;6.57;;;;;;;-4.76;100.00;96743.16;4983512;28;20503;-75
2024/01/16 06:03:41;;;;;;;10.63;6.88;;;;;;;-4.72;100.00;96749.56;4982193;28;20408;-77
2024/01/16 06:06:09;;;;;;;12.80;6.70;;;;;;;-4.70;100.00;96747.63;4981659;28;20406;-77
2024/01/16 06:08:35;;;;;;;10.30;6.40;;;;;;;-4.71;100.00;96754.56;4983537;28;20407;-77
2024/01/16 06:11:01;;;;;;;9.82;6.05;;;;;;;-4.69;100.00;96756.97;4982651;28;20416;-80
2024/01/16 06:13:27;;;;;;;11.20;6.93;;;;;;;-4.69;100.00;96752.63;4983203;28;20399;-77
2024/01/16 06:15:54;;;;;;;17.58;7.60;;;;;;;-4.73;100.00;96740.19;4984493;28;20402;-77
2024/01/16 06:18:20;;;;;;;13.77;6.97;;;;;;;-4.66;100.00;96745.50;4982969;28;20468;-77
2024/01/16 06:20:46;;;;;;;13.13;7.22;;;;;;;-4.65;100.00;96747.91;4983167;28;20428;-76
2024/01/16 06:23:14;;;;;;;12.07;7.57;;;;;;;-4.69;100.00;96742.28;4980149;28;20947;-76
2024/01/16 06:25:40;;;;;;;12.88;6.93;;;;;;;-4.65;100.00;96742.72;4983251;28;20428;-76
2024/01/16 06:28:07;;;;;;;11.57;6.65;;;;;;;-4.61;100.00;96725.94;4981197;28;20402;-76
2024/01/16 06:30:34;;;;;;;12.02;6.90;;;;;;;-4.60;100.00;96735.28;4982721;28;20785;-76
2024/01/16 06:33:00;;;;;;;10.52;6.90;;;;;;;-4.60;100.00;96731.91;4982868;28;20464;-76
2024/01/16 06:35:26;;;;;;;13.85;6.68;;;;;;;-4.60;100.00;96737.06;4982613;28;20956;-75
2024/01/16 06:37:52;;;;;;;10.82;5.95;;;;;;;-4.58;100.00;96741.06;4981720;28;20423;-76
2024/01/16 06:40:20;;;;;;;10.15;6.18;;;;;;;-4.58;100.00;96742.84;4981975;28;20410;-76
2024/01/16 06:42:47;;;;;;;10.15;5.75;;;;;;;-4.60;100.00;96758.53;4982021;28;20407;-76
2024/01/16 06:45:14;;;;;;;10.63;6.00;;;;;;;-4.59;100.00;96754.97;4988974;28;20402;-76
2024/01/16 06:47:41;;;;;;;9.02;6.07;;;;;;;-4.59;100.00;96757.56;4992329;28;20398;-75
2024/01/16 06:50:08;;;;;;;11.82;6.28;;;;;;;-4.57;100.00;96752.19;4992234;28;20508;-76
2024/01/16 06:52:34;;;;;;;11.57;6.25;;;;;;;-4.59;100.00;96754.97;4991901;28;20477;-75
2024/01/16 06:55:00;;;;;;;10.43;6.50;;;;;;;-4.61;100.00;96759.50;4991391;28;20402;-76
2024/01/16 06:57:28;;;;;;;15.10;7.32;;;;;;;-4.66;100.00;96756.63;4992794;28;20453;-78
2024/01/16 06:59:54;;;;;;;12.95;6.90;;;;;;;-4.66;100.00;96748.09;4992350;28;20438;-78
2024/01/16 07:02:20;;;;;;;19.05;7.05;;;;;;;-4.69;100.00;96746.66;4991570;28;20411;-74
2024/01/16 07:04:46;;;;;;;10.60;6.07;;;;;;;-4.64;100.00;96748.69;4974131;28;20404;-76
2024/01/16 07:07:12;;;;;;;9.13;5.85;;;;;;;-4.65;100.00;96760.81;4972198;28;20409;-76
2024/01/16 07:09:38;;;;;;;10.45;5.90;;;;;;;-4.67;100.00;96760.19;4972040;28;20446;-76
2024/01/16 07:12:05;;;;;;;11.73;6.43;;;;;;;-4.70;100.00;96757.94;4972107;28;20792;-76
2024/01/16 07:14:33;;;;;;;11.55;6.75;;;;;;;-4.71;100.00;96757.13;4972044;28;20491;-76
2024/01/16 07:16:59;;;;;;;12.15;6.05;;;;;;;-4.71;100.00;96761.50;4972151;28;20396;-76
2024/01/16 07:19:25;;;;;;;11.27;5.78;;;;;;;-4.76;100.00;96754.28;4971962;28;20904;-76
2024/01/16 07:21:51;;;;;;;12.02;6.07;;;;;;;-4.76;100.00;96753.47;4972166;28;20407;-76
2024/01/16 07:24:17;;;;;;;9.90;6.07;;;;;;;-4.78;100.00;96753.63;4971870;28;20396;-75
2024/01/16 07:26:44;;;;;;;10.75;6.20;;;;;;;-4.79;100.00;96751.22;4972171;28;20523;-76
2024/01/16 07:29:10;;;;;;;11.32;6.25;;;;;;;-4.82;100.00;96747.22;4972678;28;20484;-75
2024/01/16 07:31:37;;;;;;;12.20;5.88;;;;;;;-4.81;100.00;96750.59;4972235;28;20782;-76
2024/01/16 07:34:03;;;;;;;10.48;6.10;;;;;;;-4.80;100.00;96754.78;4972311;28;20499;-76
2024/01/16 07:36:30;;;;;;;11.50;5.90;;;;;;;-4.76;100.00;96758.63;4975216;28;20901;-76
2024/01/16 07:38:57;;;;;;;8.20;5.68;;;;;;;-4.74;100.00;96747.16;4975719;28;20400;-76
2024/01/16 07:41:23;;;;;;;11.07;5.87;;;;;;;-4.69;100.00;96755.19;4984460;28;20408;-76
2024/01/16 07:43:49;;;;;;;9.10;5.80;;;;;;;-4.64;100.00;96746.13;4995464;28;20757;-76
2024/01/16 07:46:16;;;;;;;13.38;6.72;;;;;;;-4.59;100.00;96754.19;4995202;28;20503;-76
2024/01/16 07:48:43;;;;;;;8.38;5.60;;;;;;;-4.57;100.00;96750.44;4995173;28;20398;-75
2024/01/16 07:51:09;;;;;;;8.85;5.85;;;;;;;-4.55;100.00;96748.47;4995097;28;20823;-76
2024/01/16 07:53:36;;;;;;;9.70;5.80;;;;;;;-4.51;100.00;96747.16;4994892;28;20962;-76
2024/01/16 07:56:02;;;;;;;8.73;5.47;;;;;;;-4.46;100.00;96746.66;4995175;28;20848;-76
2024/01/16 07:58:28;;;;;;;8.40;5.32;;;;;;;-4.43;100.00;96739.34;4994887;28;20745;-76
2024/01/16 08:00:55;;;;;;;9.15;5.55;;;;;;;-4.38;100.00;96747.41;4994581;28;20402;-76
2024/01/16 08:03:21;;;;;;;9.63;5.43;;;;;;;-4.31;100.00;96747.50;4987138;28;20412;-76
2024/01/16 08:05:48;;;;;;;10.45;5.80;;;;;;;-4.26;100.00;96752.94;4984530;28;20486;-76
2024/01/16 08:08:14;;;;;;;11.10;5.75;;;;;;;-4.23;100.00;96750.03;4979694;28;20408;-76
2024/01/16 08:10:42;;;;;;;8.82;5.63;;;;;;;-4.20;100.00;96743.69;4991616;28;20834;-76
2024/01/16 08:13:08;;;;;;;11.38;5.40;;;;;;;-4.14;100.00;96746.41;4991862;28;20405;-77
2024/01/16 08:15:35;;;;;;;11.02;5.47;;;;;;;-4.09;100.00;96744.09;5004444;28;20477;-77
2024/01/16 08:18:01;;;;;;;8.75;5.55;;;;;;;-4.03;100.00;96745.97;5002937;28;20410;-77
2024/01/16 08:20:27;;;;;;;8.40;5.40;;;;;;;-3.92;100.00;96747.34;5004563;28;20417;-77
2024/01/16 08:22:55;;;;;;;10.77;6.05;;;;;;;-3.87;100.00;96741.63;5001286;28;20415;-77
2024/01/16 08:25:22;;;;;;;9.00;5.30;;;;;;;-3.80;100.00;96738.16;5005061;28;22823;-76
2024/01/16 08:27:48;;;;;;;7.05;4.85;;;;;;;-3.77;100.00;96745.56;5002357;28;20476;-76
2024/01/16 08:30:15;;;;;;;8.70;5.00;;;;;;;-3.71;100.00;96746.63;5003729;28;20480;-76
2024/01/16 08:32:41;;;;;;;9.60;5.80;;;;;;;-3.64;100.00;96744.94;5002344;28;20460;-75
2024/01/16 08:35:08;;;;;;;8.57;5.25;;;;;;;-3.59;100.00;96746.00;5001919;28;20426;-76
2024/01/16 08:37:34;;;;;;;9.02;5.38;;;;;;;-3.54;100.00;96758.44;5001943;28;20393;-76
2024/01/16 08:40:04;;;;;;;8.43;4.88;;;;;;;-3.48;100.00;96755.13;5003152;28;20842;-76
2024/01/16 08:42:30;;;;;;;6.05;4.68;;;;;;;-3.39;100.00;96758.44;5001858;28;20400;-76
2024/01/16 08:44:56;;;;;;;8.07;5.13;;;;;;;-3.33;100.00;96758.50;5003442;28;20457;-76
2024/01/16 08:47:22;;;;;;;8.50;4.47;;;;;;;-3.30;100.00;96759.91;5002180;28;20407;-76
2024/01/16 08:49:49;;;;;;;8.25;5.20;;;;;;;-3.23;100.00;96771.16;5001474;28;20487;-77
2024/01/16 08:52:16;;;;;;;7.40;5.07;;;;;;;-3.15;100.00;96765.88;5003744;28;20407;-77
2024/01/16 08:54:42;;;;;;;9.07;5.20;;;;;;;-3.11;100.00;96769.72;5001752;28;20771;-76
2024/01/16 08:57:10;;;;;;;8.90;5.30;;;;;;;-3.09;100.00;96772.16;5001797;28;20398;-77
2024/01/16 08:59:36;;;;;;;7.57;4.95;;;;;;;-3.08;100.00;96771.94;5003169;28;20406;-77
2024/01/16 09:02:03;;;;;;;7.43;4.70;;;;;;;-3.03;100.00;96771.41;5001933;28;20756;-76
2024/01/16 09:04:29;;;;;;;5.85;4.25;;;;;;;-2.98;100.00;96767.28;5001536;28;20451;-77
2024/01/16 09:06:55;;;;;;;6.63;4.72;;;;;;;-2.95;100.00;96763.56;5001862;28;20409;-77
2024/01/16 09:09:21;;;;;;;6.85;4.60;;;;;;;-2.90;100.00;96762.00;5002200;28;20962;-76
2024/01/16 09:11:48;;;;;;;10.23;4.63;;;;;;;-2.87;100.00;96764.25;5003014;28;20413;-82
2024/01/16 09:14:15;;;;;;;8.25;4.90;;;;;;;-2.78;100.00;96770.91;5002618;28;20852;-77
2024/01/16 09:16:42;;;;;;;6.65;4.68;;;;;;;-2.65;100.00;96761.69;4997038;28;20898;-77
2024/01/16 09:19:09;;;;;;;10.35;5.15;;;;;;;-2.62;100.00;96751.75;4999516;28;20407;-77
2024/01/16 09:21:35;;;;;;;6.20;4.47;;;;;;;-2.48;100.00;96757.88;5000858;28;20420;-77
2024/01/16 09:24:01;;;;;;;7.53;5.07;;;;;;;-2.40;100.00;96770.69;4997585;28;20407;-78
2024/01/16 09:26:27;;;;;;;7.47;4.47;;;;;;;-2.30;100.00;96767.81;5000080;28;20912;-77
2024/01/16 09:28:54;;;;;;;7.57;4.97;;;;;;;-2.21;100.00;96772.69;5002264;28;20492;-77
2024/01/16 09:31:21;;;;;;;8.77;4.88;;;;;;;-2.10;100.00;96774.78;5001949;28;20429;-80
2024/01/16 09:33:47;;;;;;;7.45;4.75;;;;;;;-2.01;100.00;96765.06;5008158;28;20468;-79
2024/01/16 09:36:13;;;;;;;10.38;4.65;;;;;;;-1.87;100.00;96768.56;5005294;28;20414;-79
2024/01/16 09:38:39;;;;;;;8.30;4.93;;;;;;;-1.79;100.00;96766.63;5015166;28;20814;-79
2024/01/16 09:41:06;;;;;;;9.38;4.57;;;;;;;-1.69;100.00;96759.34;5015251;28;20400;-79
2024/01/16 09:43:33;;;;;;;8.10;4.25;;;;;;;-1.51;100.00;96753.69;4998018;28;20407;-78
2024/01/16 09:46:04;;;;;;;8.48;4.93;;;;;;;-1.36;100.00;96771.72;4998412;28;20394;-79
2024/01/16 09:48:32;;;;;;;6.07;4.13;;;;;;;-1.10;100.00;96764.06;5002767;28;20399;-79
2024/01/16 09:50:58;;;;;;;6.72;4.35;;;;;;;-0.88;100.00;96768.16;5000014;28;20419;-78
2024/01/16 09:53:24;;;;;;;7.90;4.50;;;;;;;-0.74;100.00;96763.00;5000523;28;20405;-79
2024/01/16 09:55:53;;;;;;;6.20;4.50;;;;;;;-0.68;100.00;96755.25;4995015;28;20896;-79
2024/01/16 09:58:20;;;;;;;8.15;4.40;;;;;;;-0.60;100.00;96759.47;4993602;28;20444;-77
2024/01/16 10:00:48;;;;;;;7.65;4.50;;;;;;;-0.47;100.00;96754.28;5011981;28;20397;-76
2024/01/16 10:03:15;;;;;;;8.25;4.47;;;;;;;-0.25;100.00;96757.53;5012855;28;20400;-75
2024/01/16 10:05:44;;;;;;;6.93;3.80;;;;;;;0.21;100.00;96753.16;5001170;28;20478;-77
2024/01/16 10:08:10;;;;;;;6.75;4.10;;;;;;;0.31;100.00;96747.50;4993028;28;20421;-77
2024/01/16 10:10:36;;;;;;;7.38;4.13;;;;;;;0.88;100.00;96738.19;4993380;28;20429;-77
2024/01/16 10:13:04;;;;;;;6.05;3.80;;;;;;;1.41;100.00;96742.19;5004186;28;20902;-77
2024/01/16 10:15:31;;;;;;;5.82;3.70;;;;;;;2.12;100.00;96749.72;5014104;28;20430;-77
2024/01/16 10:17:59;;;;;;;5.47;3.40;;;;;;;2.69;100.00;96740.78;5017618;28;20484;-77
2024/01/16 10:20:33;;;;;;;6.82;4.40;;;;;;;3.09;100.00;96735.09;5023039;28;20887;-79
2024/01/16 10:23:03;;;;;;;4.88;3.25;;;;;;;3.58;100.00;96735.88;5005111;28;20425;-78
2024/01/16 10:25:29;;;;;;;8.60;3.63;;;;;;;4.08;100.00;96715.38;5005279;28;20394;-79
2024/01/16 10:28:04;;;;;;;7.05;3.67;;;;;;;4.44;100.00;96715.16;5010050;28;20431;-80
2024/01/16 10:30:31;;;;;;;7.35;2.92;;;;;;;4.45;100.00;96719.38;5023893;28;20479;-80
2024/01/16 10:33:14;;;;;;;7.55;3.40;;;;;;;4.68;100.00;96706.28;5003742;28;20433;-77
2024/01/16 10:35:41;;;;;;;4.88;2.80;;;;;;;4.81;100.00;96701.81;4994116;28;20399;-77
2024/01/16 10:38:08;;;;;;;9.25;4.88;;;;;;;4.71;100.00;96697.16;4995362;28;20852;-78
2024/01/16 10:40:35;;;;;;;6.17;3.70;;;;;;;4.62;100.00;96696.72;4993822;28;20498;-77
2024/01/16 10:43:05;;;;;;;4.18;3.22;;;;;;;4.83;100.00;96700.56;5008350;28;20437;-77
2024/01/16 10:45:32;;;;;;;4.45;3.00;;;;;;;5.86;100.00;96702.22;5006618;28;20855;-77
2024/01/16 10:48:02;;;;;;;5.03;2.67;;;;;;;6.86;100.00;96703.97;4993928;28;20748;-78
2024/01/16 10:50:28;;;;;;;6.00;2.40;;;;;;;7.50;100.00;96697.09;4993650;28;20942;-77
2024/01/16 10:52:55;;;;;;;3.07;1.90;;;;;;;8.27;100.00;96703.81;5011858;28;20401;-78
2024/01/16 10:55:24;;;;;;;5.38;2.15;;;;;;;8.75;100.00;96703.63;5013328;28;20392;-76
2024/01/16 10:57:51;;;;;;;13.77;4.10;;;;;;;8.48;100.00;96708.22;5003053;28;20405;-76
2024/01/16 11:00:20;;;;;;;19.08;6.80;;;;;;;8.58;100.00;96699.56;4991983;28;20410;-76
2024/01/16 11:02:51;;;;;;;7.47;3.17;;;;;;;8.68;100.00;96689.88;4992104;28;20426;-75
2024/01/16 11:05:18;;;;;;;3.10;2.30;;;;;;;9.04;100.00;96680.28;4995745;28;20393;-76
2024/01/16 11:07:46;;;;;;;3.60;1.92;;;;;;;9.24;100.00;96682.22;5011347;28;20420;-76
2024/01/16 11:10:13;;;;;;;2.55;1.70;;;;;;;9.37;100.00;96684.34;5010595;28;20435;-76
2024/01/16 11:12:41;;;;;;;5.63;2.33;;;;;;;9.31;100.00;96683.56;5011239;28;20389;-76
2024/01/16 11:15:12;;;;;;;6.20;2.57;;;;;;;9.36;100.00;96684.59;4993823;28;20441;-77
2024/01/16 11:17:39;;;;;;;3.20;1.80;;;;;;;8.98;100.00;96677.88;5000610;28;20448;-77
2024/01/16 11:20:09;;;;;;;3.15;2.03;;;;;;;8.29;100.00;96677.97;5002867;28;20460;-76